createdAt,value
2019-02-20T11:44:32.598Z,45.00
2019-02-20T11:48:35.644Z,44.40
2019-02-20T11:52:38.773Z,41.60
2019-02-20T11:56:41.898Z,40.30
2019-02-20T12:00:44.932Z,41.70
2019-02-20T12:04:47.968Z,37.60
2019-02-20T12:08:50.973Z,40.90
2019-02-20T12:12:54.675Z,38.90
2019-02-20T12:16:57.833Z,39.70
2019-02-20T12:21:00.865Z,40.10
2019-02-20T12:25:08.265Z,40.10
2019-02-20T12:29:11.392Z,40.40
2019-02-20T12:33:14.511Z,39.90
2019-02-20T12:37:17.531Z,39.80
2019-02-20T12:41:20.564Z,39.70
2019-02-20T12:45:24.017Z,39.00
2019-02-20T12:49:27.052Z,42.50
2019-02-20T12:53:30.060Z,42.60
2019-02-20T12:57:33.204Z,40.10
2019-02-20T13:01:36.216Z,41.40
2019-02-20T13:05:39.240Z,41.70
2019-02-20T13:09:42.251Z,42.50
2019-02-20T13:13:45.267Z,42.80
2019-02-20T13:17:48.277Z,43.30
2019-02-20T13:21:51.296Z,43.30
2019-02-20T13:25:54.317Z,50.70
2019-02-20T13:29:57.356Z,46.20
2019-02-20T13:34:00.572Z,40.50
2019-02-20T13:38:03.621Z,40.20
2019-02-20T13:42:06.640Z,43.10
2019-02-20T13:46:10.200Z,42.30
2019-02-20T13:50:13.389Z,43.40
2019-02-20T13:54:16.811Z,43.70
2019-02-20T13:58:19.901Z,43.90
2019-02-20T14:02:23.320Z,43.80
2019-02-20T14:06:26.406Z,43.30
2019-02-20T14:10:30.600Z,43.60
2019-02-20T14:14:33.625Z,43.70
2019-02-20T14:18:36.727Z,44.20
2019-02-20T14:22:39.787Z,45.40
2019-02-20T14:26:42.863Z,46.00
2019-02-20T14:30:46.029Z,46.50
2019-02-20T14:34:49.123Z,46.70
2019-02-20T14:38:52.137Z,47.20
2019-02-20T14:42:55.257Z,47.50
2019-02-20T14:46:59.270Z,47.60
2019-02-20T14:51:02.703Z,48.40
2019-02-20T14:55:07.588Z,48.20
2019-02-20T14:59:10.627Z,48.60
2019-02-20T15:03:13.749Z,48.60
2019-02-20T15:07:16.760Z,47.40
2019-02-20T15:11:19.793Z,48.20
2019-02-20T15:15:22.898Z,47.60
2019-02-20T15:19:25.984Z,47.50
2019-02-20T15:23:28.988Z,48.20
2019-02-20T15:27:31.985Z,47.90
2019-02-20T15:31:35.088Z,48.50
2019-02-20T15:35:38.504Z,48.40
2019-02-20T15:39:41.595Z,49.20
2019-02-20T15:43:45.025Z,49.00
2019-02-20T15:47:49.027Z,49.50
2019-02-20T15:51:52.418Z,49.60
2019-02-20T15:55:55.431Z,49.40
2019-02-20T15:59:58.432Z,50.10
2019-02-20T16:04:01.432Z,49.50
2019-02-20T16:08:04.440Z,50.10
2019-02-20T16:12:07.552Z,50.20
2019-02-20T16:16:10.588Z,50.40
2019-02-20T16:20:13.713Z,50.80
2019-02-20T16:24:16.824Z,50.50
2019-02-20T16:28:19.971Z,51.20
2019-02-20T16:32:23.081Z,51.40
2019-02-20T16:36:26.168Z,51.40
2019-02-20T16:40:29.195Z,51.60
2019-02-20T16:44:32.208Z,50.90
2019-02-20T16:48:36.145Z,51.40
2019-02-20T16:52:39.260Z,51.40
2019-02-20T16:56:42.275Z,51.60
2019-02-20T17:00:45.285Z,52.10
2019-02-20T17:04:48.332Z,52.50
2019-02-20T17:08:51.345Z,53.30
2019-02-20T17:12:54.352Z,53.50
2019-02-20T17:16:57.366Z,54.40
2019-02-20T17:21:00.525Z,54.80
2019-02-20T17:25:05.949Z,54.70
2019-02-20T17:29:08.951Z,55.30
2019-02-20T17:33:12.243Z,55.10
2019-02-20T17:37:15.337Z,55.00
2019-02-20T17:41:18.896Z,55.70
2019-02-20T17:45:22.146Z,56.00
2019-02-20T17:49:25.946Z,56.80
2019-02-20T17:53:28.959Z,57.20
2019-02-20T17:57:31.956Z,57.50
2019-02-20T18:01:34.966Z,58.20
2019-02-20T18:05:37.968Z,57.70
2019-02-20T18:09:40.978Z,58.20
2019-02-20T18:13:43.984Z,56.90
2019-02-20T18:17:47.001Z,57.30
2019-02-20T18:21:50.005Z,57.90
2019-02-20T18:25:53.012Z,59.10
2019-02-20T18:29:56.020Z,60.00
2019-02-20T18:33:59.028Z,59.60
2019-02-20T18:38:02.038Z,60.10
2019-02-20T18:42:05.040Z,60.00
2019-02-20T18:46:08.061Z,60.20
2019-02-20T18:50:13.325Z,60.60
2019-02-20T18:54:16.330Z,60.00
2019-02-20T18:58:19.321Z,60.50
2019-02-20T19:02:22.348Z,60.70
2019-02-20T19:06:25.468Z,60.80
2019-02-20T19:10:32.305Z,61.00
2019-02-20T19:14:48.036Z,61.00
2019-02-20T19:19:06.622Z,61.50
2019-02-20T19:23:41.915Z,61.50
2019-02-20T19:27:54.509Z,61.10
2019-02-20T19:32:01.320Z,62.00
2019-02-20T19:36:14.396Z,61.60
2019-02-20T19:40:33.482Z,62.50
2019-02-20T19:44:49.559Z,61.80
2019-02-20T19:49:14.920Z,62.40
2019-02-20T19:53:23.144Z,62.60
2019-02-20T19:57:33.045Z,62.60
2019-02-20T20:01:59.506Z,63.10
2019-02-20T20:06:06.355Z,62.90
2019-02-20T20:10:27.725Z,63.40
2019-02-20T20:14:41.940Z,62.60
2019-02-20T20:19:20.778Z,63.30
2019-02-20T20:24:01.189Z,63.50
2019-02-20T20:28:11.173Z,62.80
2019-02-20T20:32:39.518Z,63.30
2019-02-20T20:36:51.002Z,62.70
2019-02-20T20:40:57.964Z,63.30
2019-02-20T20:45:10.721Z,62.70
2019-02-20T20:49:46.512Z,63.30
2019-02-20T20:54:03.286Z,63.30
2019-02-20T20:58:18.848Z,63.90
2019-02-20T21:02:25.660Z,64.40
2019-02-20T21:06:35.342Z,64.50
2019-02-20T21:10:47.619Z,65.20
2019-02-20T21:15:11.294Z,64.70
2019-02-20T21:19:21.797Z,65.20
2019-02-20T21:23:44.235Z,65.30
2019-02-20T21:28:06.164Z,64.70
2019-02-20T21:32:21.724Z,65.30
2019-02-20T21:36:37.389Z,64.40
2019-02-20T21:40:47.239Z,65.10
2019-02-20T21:45:00.776Z,65.60
2019-02-20T21:49:17.075Z,66.50
2019-02-20T21:53:42.383Z,66.10
2019-02-20T21:57:58.486Z,65.60
2019-02-20T22:02:32.515Z,65.80
2019-02-20T22:07:00.854Z,65.60
2019-02-20T22:11:16.115Z,66.00
2019-02-20T22:15:28.964Z,66.20
2019-02-20T22:19:52.476Z,66.30
2019-02-20T22:23:59.717Z,65.80
2019-02-20T22:28:21.870Z,66.50
2019-02-20T22:32:40.406Z,66.30
2019-02-20T22:36:53.376Z,66.10
2019-02-20T22:41:05.908Z,67.00
2019-02-20T22:45:33.771Z,65.40
2019-02-20T22:49:46.637Z,65.60
2019-02-20T22:54:14.184Z,65.10
2019-02-20T22:58:24.219Z,65.60
2019-02-20T23:02:46.172Z,65.00
2019-02-20T23:07:02.120Z,64.30
2019-02-20T23:11:32.797Z,65.40
2019-02-20T23:15:35.805Z,65.50
2019-02-20T23:19:38.812Z,66.20
2019-02-20T23:23:41.814Z,65.90
2019-02-20T23:27:44.829Z,66.40
2019-02-20T23:31:47.856Z,67.10
2019-02-20T23:35:50.839Z,66.50
2019-02-20T23:39:53.854Z,67.00
2019-02-20T23:43:56.881Z,66.40
2019-02-20T23:47:59.896Z,65.90
2019-02-20T23:52:02.912Z,66.30
2019-02-20T23:56:05.919Z,64.80
